FlightSource - Aviation Photo Database

World Wide Airport Lookup


Search by ICAO
Or
Search by City

FlightSource.ca - Aviation Photo Database - Langenlebarn Military Airport Information
Airport Identification
Name: Langenlebarn Military Airport
ICAO: LOXT
IATA:
Airport Location
City: Tulln
Region: 3
Country: Austria
Continent: Europe
Latitude: 48.3167
Longitude: 16.1167
Airport Information
Type: Small Airport
Elevation: 574 Feet ASL
Flight Status: LOXT
More Info: LOXT
Airport Weather    
Metar: LOXT 282050Z 17007KT 30KM FEW150AC SCT300CI 25/11 Q0997 RMK SCT
TAF:


Advertisement